createdAt,value
2017-10-02T00:01:31.654Z,92.76
2017-10-02T00:03:59.651Z,92.62
2017-10-02T00:06:28.079Z,92.11
2017-10-02T00:08:55.657Z,92.08
2017-10-02T00:11:23.664Z,92.34
2017-10-02T00:13:51.241Z,92.34
2017-10-02T00:16:18.828Z,92.36
2017-10-02T00:18:47.074Z,92.16
2017-10-02T00:21:15.036Z,92.14
2017-10-02T00:23:42.629Z,91.56
2017-10-02T00:26:10.201Z,91.51
2017-10-02T00:28:38.311Z,91.60
2017-10-02T00:31:08.410Z,91.74
2017-10-02T00:33:37.036Z,92.01
2017-10-02T00:36:04.612Z,92.09
2017-10-02T00:38:32.176Z,92.09
2017-10-02T00:40:59.785Z,92.85
2017-10-02T00:43:28.752Z,93.22
2017-10-02T00:45:59.312Z,93.08
2017-10-02T00:48:27.870Z,92.97
2017-10-02T00:50:55.462Z,93.30
2017-10-02T00:53:23.439Z,93.36
2017-10-02T00:55:51.241Z,93.49
2017-10-02T00:58:19.156Z,93.72
2017-10-02T01:00:46.913Z,93.61
2017-10-02T01:03:14.896Z,93.43
2017-10-02T01:05:43.970Z,93.05
2017-10-02T01:08:11.549Z,92.75
2017-10-02T01:10:39.754Z,92.78
2017-10-02T01:13:07.305Z,92.56
2017-10-02T01:15:35.257Z,92.88
2017-10-02T01:18:02.833Z,92.66
2017-10-02T01:20:30.391Z,92.67
2017-10-02T01:22:58.031Z,93.35
2017-10-02T01:25:25.622Z,94.05
2017-10-02T01:27:53.254Z,94.09
2017-10-02T01:30:23.873Z,93.51
2017-10-02T01:32:51.771Z,93.19
2017-10-02T01:35:19.712Z,93.29
2017-10-02T01:37:47.252Z,93.17
2017-10-02T01:40:15.170Z,93.36
2017-10-02T01:42:42.731Z,93.56
2017-10-02T01:45:10.746Z,93.83
2017-10-02T01:47:38.285Z,93.89
2017-10-02T01:50:07.011Z,93.90
2017-10-02T01:52:36.590Z,93.99
2017-10-02T01:55:04.823Z,94.60
2017-10-02T01:57:33.764Z,94.35
2017-10-02T02:00:01.300Z,94.68
2017-10-02T02:02:29.258Z,94.68
2017-10-02T02:04:57.150Z,94.31
2017-10-02T02:10:00.056Z,94.41
2017-10-02T02:12:28.163Z,94.49
2017-10-02T02:14:56.460Z,94.49
2017-10-02T02:17:25.157Z,94.08
2017-10-02T02:19:52.739Z,93.89
2017-10-02T02:22:22.061Z,93.98
2017-10-02T02:24:50.317Z,94.03
2017-10-02T02:27:19.425Z,94.74
2017-10-02T02:29:46.992Z,94.73
2017-10-02T02:32:14.957Z,94.57
2017-10-02T02:34:47.432Z,94.18
2017-10-02T02:37:15.349Z,93.89
2017-10-02T02:39:43.464Z,93.77
2017-10-02T02:42:12.584Z,93.56
2017-10-02T02:44:40.618Z,93.45
2017-10-02T02:47:08.181Z,94.12
2017-10-02T02:49:35.746Z,94.33
2017-10-02T02:52:03.734Z,94.71
2017-10-02T02:54:31.291Z,94.85
2017-10-02T02:56:59.553Z,94.58
2017-10-02T02:59:27.121Z,94.28
2017-10-02T03:01:57.111Z,94.10
2017-10-02T03:04:24.680Z,94.00
2017-10-02T03:06:52.234Z,94.03
2017-10-02T03:09:19.817Z,93.92
2017-10-02T03:11:47.443Z,94.33
2017-10-02T03:14:15.025Z,94.54
2017-10-02T03:16:42.572Z,94.33
2017-10-02T03:19:10.433Z,94.18
2017-10-02T03:21:38.376Z,93.95
2017-10-02T03:24:06.820Z,93.62
2017-10-02T03:26:37.354Z,93.31
2017-10-02T03:29:07.613Z,93.57
2017-10-02T03:31:36.738Z,93.64
2017-10-02T03:34:04.325Z,93.67
2017-10-02T03:36:32.663Z,94.12
2017-10-02T03:39:02.020Z,94.13
2017-10-02T03:41:29.608Z,93.60
2017-10-02T03:43:57.608Z,93.88
2017-10-02T03:46:25.163Z,94.14
2017-10-02T03:48:53.038Z,94.54
2017-10-02T03:51:20.579Z,94.25
2017-10-02T03:53:48.535Z,94.26
2017-10-02T03:56:16.112Z,94.11
2017-10-02T03:58:46.092Z,93.81
2017-10-02T04:01:14.412Z,93.70
2017-10-02T04:03:43.856Z,93.65
2017-10-02T04:06:11.614Z,93.58
2017-10-02T04:08:39.402Z,93.61
2017-10-02T04:11:07.730Z,93.30
2017-10-02T04:13:37.047Z,93.08
2017-10-02T04:16:04.657Z,93.51
2017-10-02T04:18:32.224Z,93.38
2017-10-02T04:21:00.003Z,93.57
2017-10-02T04:23:27.594Z,93.42
2017-10-02T04:25:55.195Z,93.38
2017-10-02T04:28:24.478Z,93.37
2017-10-02T04:30:52.080Z,93.23
2017-10-02T04:33:20.079Z,93.47
2017-10-02T04:35:49.267Z,93.77
2017-10-02T04:38:19.941Z,93.65
2017-10-02T04:40:50.878Z,93.86
2017-10-02T04:43:18.786Z,93.88
2017-10-02T04:45:47.088Z,93.84
2017-10-02T04:48:14.780Z,93.68
2017-10-02T04:50:43.917Z,93.38
2017-10-02T04:53:11.902Z,92.83
2017-10-02T04:55:42.591Z,93.04
2017-10-02T04:58:10.597Z,92.88
2017-10-02T05:00:39.902Z,92.81
2017-10-02T05:03:08.844Z,92.74
2017-10-02T05:05:36.434Z,92.53
2017-10-02T05:08:04.628Z,92.71
2017-10-02T05:10:32.192Z,93.08
2017-10-02T05:13:01.387Z,93.14
2017-10-02T05:15:28.961Z,93.55
2017-10-02T05:17:56.530Z,93.76
2017-10-02T05:20:24.498Z,93.86
2017-10-02T05:22:52.075Z,94.53
2017-10-02T05:25:19.677Z,94.91
2017-10-02T05:27:47.195Z,95.48
2017-10-02T05:30:14.754Z,95.81
2017-10-02T05:32:42.760Z,96.13
2017-10-02T05:35:10.329Z,96.41
2017-10-02T05:37:38.246Z,96.56
2017-10-02T05:40:05.816Z,96.67
2017-10-02T05:42:33.389Z,96.69
2017-10-02T05:45:01.315Z,96.66
2017-10-02T05:47:28.889Z,96.67
2017-10-02T05:49:57.120Z,96.77
2017-10-02T05:52:24.716Z,96.81
2017-10-02T05:54:52.297Z,96.66
2017-10-02T05:57:19.873Z,96.46
2017-10-02T05:59:48.897Z,96.18
2017-10-02T06:02:16.454Z,96.33
2017-10-02T06:04:44.033Z,96.56
2017-10-02T06:07:11.614Z,96.86
2017-10-02T06:09:40.318Z,96.88
2017-10-02T06:12:07.878Z,97.08
2017-10-02T06:14:35.480Z,97.42
2017-10-02T06:17:03.100Z,97.39
2017-10-02T06:19:30.688Z,97.31
2017-10-02T06:21:58.280Z,97.48
2017-10-02T06:24:28.334Z,97.68
2017-10-02T06:26:55.937Z,97.93
2017-10-02T06:29:23.509Z,98.07
2017-10-02T06:31:51.142Z,98.16
2017-10-02T06:34:18.709Z,98.21
2017-10-02T06:36:46.280Z,98.34
2017-10-02T06:39:13.933Z,98.35
2017-10-02T06:41:41.893Z,98.36
2017-10-02T06:44:09.461Z,98.32
2017-10-02T06:46:37.052Z,98.51
2017-10-02T06:49:04.606Z,98.58
2017-10-02T06:51:32.499Z,98.65
2017-10-02T06:54:00.159Z,98.80
2017-10-02T06:56:27.742Z,98.87
2017-10-02T06:58:55.382Z,98.88
2017-10-02T07:01:23.035Z,98.86
2017-10-02T07:03:51.013Z,98.85
2017-10-02T07:06:18.606Z,98.90
2017-10-02T07:08:46.661Z,98.78
2017-10-02T07:11:14.244Z,98.82
2017-10-02T07:13:41.812Z,98.72
2017-10-02T07:16:09.405Z,98.73
2017-10-02T07:18:36.973Z,98.96
2017-10-02T07:21:04.565Z,98.91
2017-10-02T07:23:32.198Z,98.88
2017-10-02T07:26:01.889Z,98.93
2017-10-02T07:28:30.116Z,98.92
2017-10-02T07:30:57.788Z,98.92
2017-10-02T07:33:26.493Z,98.96
2017-10-02T07:35:54.404Z,98.79
2017-10-02T07:38:22.653Z,98.50
2017-10-02T07:40:50.279Z,98.45
2017-10-02T07:43:18.365Z,98.45
2017-10-02T07:45:45.952Z,98.32
2017-10-02T07:48:13.935Z,98.44
2017-10-02T07:50:42.889Z,98.42
2017-10-02T07:53:10.464Z,98.36
2017-10-02T07:55:38.464Z,98.17
2017-10-02T07:58:07.531Z,98.10
2017-10-02T08:00:35.121Z,97.92
2017-10-02T08:03:03.008Z,97.86
2017-10-02T08:05:30.596Z,97.89
2017-10-02T08:07:58.180Z,97.83
2017-10-02T08:10:26.253Z,97.70
2017-10-02T08:12:53.837Z,97.31
2017-10-02T08:15:21.450Z,97.05
2017-10-02T08:17:49.084Z,96.82
2017-10-02T08:20:16.673Z,96.88
2017-10-02T08:22:44.265Z,96.68
2017-10-02T08:25:11.851Z,96.55
2017-10-02T08:27:39.815Z,96.34
2017-10-02T08:30:07.537Z,95.84
2017-10-02T08:32:35.196Z,95.73
2017-10-02T08:35:02.760Z,95.51
2017-10-02T08:37:30.349Z,95.05
2017-10-02T08:39:57.935Z,94.78
2017-10-02T08:42:25.517Z,95.30
2017-10-02T08:44:53.215Z,94.42
2017-10-02T08:47:20.792Z,94.35
2017-10-02T08:49:48.396Z,94.04
2017-10-02T08:52:15.959Z,93.75
2017-10-02T08:54:43.540Z,92.54
2017-10-02T08:57:11.710Z,92.44
2017-10-02T08:59:40.370Z,92.52
2017-10-02T09:02:07.964Z,92.76
2017-10-02T09:04:35.542Z,92.32
2017-10-02T09:07:03.120Z,92.13
2017-10-02T09:09:30.742Z,92.16
2017-10-02T09:11:58.296Z,92.32
2017-10-02T09:14:25.861Z,91.67
2017-10-02T09:16:54.868Z,91.59
2017-10-02T09:19:23.009Z,90.34
2017-10-02T09:21:51.102Z,90.05
2017-10-02T09:24:18.667Z,89.46
2017-10-02T09:26:48.687Z,89.35
2017-10-02T09:29:16.290Z,89.88
2017-10-02T09:31:44.910Z,89.78
2017-10-02T09:34:12.463Z,89.30
2017-10-02T09:36:40.375Z,88.88
2017-10-02T09:39:08.299Z,88.27
2017-10-02T09:41:36.325Z,87.16
2017-10-02T09:44:03.887Z,87.02
2017-10-02T09:46:31.625Z,86.79
2017-10-02T09:49:00.610Z,86.96
2017-10-02T09:51:29.506Z,86.73
2017-10-02T09:53:59.102Z,86.42
2017-10-02T09:56:26.654Z,85.52
2017-10-02T09:58:54.606Z,85.86
2017-10-02T10:01:22.343Z,84.77
2017-10-02T10:03:51.292Z,84.47
2017-10-02T10:06:18.887Z,83.84
2017-10-02T10:08:46.485Z,83.93
2017-10-02T10:11:14.077Z,83.83
2017-10-02T10:13:41.613Z,83.97
2017-10-02T10:16:09.194Z,83.35
2017-10-02T10:18:36.768Z,82.13
2017-10-02T10:21:04.385Z,82.58
2017-10-02T10:23:31.970Z,82.62
2017-10-02T10:25:59.520Z,81.16
2017-10-02T10:28:27.474Z,79.64
2017-10-02T10:30:55.067Z,78.54
2017-10-02T10:33:22.618Z,78.79
2017-10-02T10:35:50.713Z,79.16
2017-10-02T10:38:18.306Z,76.94
2017-10-02T10:40:45.862Z,76.87
2017-10-02T10:43:13.467Z,76.30
2017-10-02T10:45:42.272Z,74.39
2017-10-02T10:48:09.874Z,73.94
2017-10-02T10:50:37.433Z,75.58
2017-10-02T10:53:05.019Z,74.67
2017-10-02T10:55:32.621Z,75.70
2017-10-02T10:58:00.178Z,74.49
2017-10-02T11:00:28.171Z,74.52
2017-10-02T11:02:55.706Z,73.04
2017-10-02T11:05:23.301Z,71.92
2017-10-02T11:07:51.331Z,71.17
2017-10-02T11:10:18.937Z,71.79
2017-10-02T11:12:46.489Z,72.49
2017-10-02T11:15:14.073Z,73.43
2017-10-02T11:17:42.180Z,73.22
2017-10-02T11:20:11.151Z,73.17
2017-10-02T11:22:39.904Z,72.13
2017-10-02T11:25:07.497Z,72.46
2017-10-02T11:27:35.069Z,72.17
2017-10-02T11:30:02.623Z,70.36
2017-10-02T11:32:30.510Z,70.90
2017-10-02T11:34:58.080Z,72.01
2017-10-02T11:37:27.101Z,70.00
2017-10-02T11:39:54.682Z,68.67
2017-10-02T11:42:23.667Z,67.48
2017-10-02T11:44:51.405Z,69.73
2017-10-02T11:47:20.129Z,70.28
2017-10-02T11:49:47.790Z,70.93
2017-10-02T11:52:16.910Z,69.06
2017-10-02T11:54:44.500Z,69.06
2017-10-02T11:57:12.476Z,69.68
2017-10-02T11:59:40.032Z,67.23
2017-10-02T12:02:09.001Z,67.53
2017-10-02T12:04:36.927Z,69.17
2017-10-02T12:07:04.526Z,66.73
2017-10-02T12:09:32.090Z,67.87
2017-10-02T12:11:59.675Z,66.43
2017-10-02T12:14:27.548Z,67.19
2017-10-02T12:16:55.141Z,66.22
2017-10-02T12:19:24.222Z,63.35
2017-10-02T12:21:52.325Z,63.37
2017-10-02T12:24:23.737Z,63.33
2017-10-02T12:26:55.451Z,62.70
2017-10-02T12:29:23.021Z,62.75
2017-10-02T12:31:50.613Z,63.67
2017-10-02T12:34:18.177Z,63.31
2017-10-02T12:36:45.747Z,62.11
2017-10-02T12:39:14.301Z,62.53
2017-10-02T12:41:43.110Z,63.13
2017-10-02T12:44:11.263Z,64.21
2017-10-02T12:46:39.980Z,62.92
2017-10-02T12:49:07.577Z,60.88
2017-10-02T12:51:36.878Z,62.04
2017-10-02T12:54:04.857Z,61.93
2017-10-02T12:56:32.438Z,59.85
2017-10-02T12:59:00.051Z,60.37
2017-10-02T13:01:31.023Z,60.50
2017-10-02T13:03:59.760Z,61.92
2017-10-02T13:06:27.338Z,62.84
2017-10-02T13:08:56.541Z,61.11
2017-10-02T13:11:24.119Z,60.51
2017-10-02T13:13:51.892Z,61.35
2017-10-02T13:16:19.459Z,60.95
2017-10-02T13:18:47.396Z,61.40
2017-10-02T13:21:15.047Z,60.86
2017-10-02T13:23:42.622Z,62.50
2017-10-02T13:26:12.980Z,63.10
2017-10-02T13:28:41.607Z,62.55
2017-10-02T13:31:10.216Z,62.74
2017-10-02T13:33:40.120Z,63.89
2017-10-02T13:36:10.000Z,62.18
2017-10-02T13:38:40.669Z,61.67
2017-10-02T13:41:10.152Z,62.35
2017-10-02T13:43:40.422Z,62.15
2017-10-02T13:46:11.859Z,64.27
2017-10-02T13:48:39.949Z,63.47
2017-10-02T13:51:07.562Z,64.41
2017-10-02T13:53:41.437Z,63.93
2017-10-02T13:56:09.449Z,63.59
2017-10-02T13:58:37.929Z,63.43
2017-10-02T14:01:07.447Z,63.91
2017-10-02T14:03:45.903Z,65.20
2017-10-02T14:06:15.211Z,63.57
2017-10-02T14:08:47.241Z,65.15
2017-10-02T14:11:16.167Z,64.00
2017-10-02T14:13:44.787Z,65.08
2017-10-02T14:16:13.160Z,65.26
2017-10-02T14:18:40.777Z,66.77
2017-10-02T14:21:08.339Z,68.45
2017-10-02T14:23:36.619Z,69.62
2017-10-02T14:26:05.565Z,70.78
2017-10-02T14:28:33.591Z,70.61
2017-10-02T14:31:04.254Z,71.75
2017-10-02T14:33:32.121Z,72.94
2017-10-02T14:36:02.547Z,71.65
2017-10-02T14:38:32.045Z,73.28
2017-10-02T14:40:59.624Z,73.78
2017-10-02T14:43:27.609Z,73.76
2017-10-02T14:45:55.829Z,75.79
2017-10-02T14:48:23.405Z,76.25
2017-10-02T14:50:50.964Z,76.46
2017-10-02T14:53:18.563Z,76.57
2017-10-02T14:55:49.097Z,78.10
2017-10-02T14:58:18.221Z,78.29
2017-10-02T15:00:45.814Z,77.90
2017-10-02T15:03:14.083Z,79.14
2017-10-02T15:05:43.210Z,80.44
2017-10-02T15:08:11.454Z,81.04
2017-10-02T15:10:39.038Z,80.90
2017-10-02T15:13:07.378Z,81.02
2017-10-02T15:15:35.430Z,80.92
2017-10-02T15:18:02.987Z,81.95
2017-10-02T15:20:32.003Z,81.45
2017-10-02T15:23:04.821Z,81.73
2017-10-02T15:25:32.758Z,82.39
2017-10-02T15:28:01.834Z,82.20
2017-10-02T15:30:31.876Z,82.38
2017-10-02T15:33:01.205Z,83.25
2017-10-02T15:35:30.661Z,83.32
2017-10-02T15:37:59.186Z,83.95
2017-10-02T15:40:28.974Z,83.85
2017-10-02T15:42:56.954Z,84.16
2017-10-02T15:45:24.867Z,84.37
2017-10-02T15:47:52.915Z,84.64
2017-10-02T15:50:22.791Z,85.12
2017-10-02T15:52:50.798Z,85.05
2017-10-02T15:55:20.103Z,84.55
2017-10-02T15:57:47.674Z,84.65
2017-10-02T16:00:15.372Z,84.53
2017-10-02T16:02:42.974Z,85.03
2017-10-02T16:05:10.564Z,85.06
2017-10-02T16:07:39.856Z,85.51
2017-10-02T16:10:08.872Z,85.54
2017-10-02T16:12:40.234Z,85.55
2017-10-02T16:15:07.910Z,85.77
2017-10-02T16:17:36.746Z,86.25
2017-10-02T16:20:04.332Z,86.04
2017-10-02T16:22:32.351Z,85.91
2017-10-02T16:25:01.056Z,86.06
2017-10-02T16:27:29.403Z,86.44
2017-10-02T16:29:58.964Z,85.70
2017-10-02T16:32:26.657Z,85.87
2017-10-02T16:34:54.239Z,85.67
2017-10-02T16:37:23.272Z,85.91
2017-10-02T16:39:51.029Z,86.13
2017-10-02T16:42:21.104Z,86.51
2017-10-02T16:44:48.682Z,86.97
2017-10-02T16:47:16.306Z,87.52
2017-10-02T16:49:43.871Z,87.50
2017-10-02T16:52:13.063Z,87.59
2017-10-02T16:54:41.369Z,87.58
2017-10-02T16:57:13.059Z,87.51
2017-10-02T16:59:41.019Z,87.04
2017-10-02T17:02:09.681Z,87.56
2017-10-02T17:04:37.312Z,86.98
2017-10-02T17:07:06.131Z,86.86
2017-10-02T17:09:34.485Z,87.09
2017-10-02T17:12:02.123Z,86.80
2017-10-02T17:14:29.694Z,86.88
2017-10-02T17:16:57.320Z,87.18
2017-10-02T17:19:25.685Z,87.03
2017-10-02T17:21:53.983Z,87.12
2017-10-02T17:24:21.556Z,87.38
2017-10-02T17:26:51.838Z,87.47
2017-10-02T17:29:19.951Z,87.33
2017-10-02T17:31:47.549Z,86.92
2017-10-02T17:34:15.151Z,86.93
2017-10-02T17:36:43.085Z,86.84
2017-10-02T17:39:12.018Z,87.26
2017-10-02T17:41:39.669Z,87.34
2017-10-02T17:44:07.672Z,87.72
2017-10-02T17:46:36.437Z,87.83
2017-10-02T17:49:05.392Z,88.08
2017-10-02T17:51:33.793Z,88.12
2017-10-02T17:54:01.356Z,88.17
2017-10-02T17:56:29.333Z,88.20
2017-10-02T17:59:00.192Z,88.26
2017-10-02T18:01:27.796Z,88.27
2017-10-02T18:03:55.428Z,88.15
2017-10-02T18:06:23.374Z,87.98
2017-10-02T18:08:50.994Z,88.19
2017-10-02T18:11:18.980Z,88.24
2017-10-02T18:13:46.564Z,88.67
2017-10-02T18:16:14.177Z,88.58
2017-10-02T18:18:41.792Z,88.79
2017-10-02T18:21:09.358Z,89.12
2017-10-02T18:23:38.601Z,89.07
2017-10-02T18:26:06.520Z,89.01
2017-10-02T18:28:37.390Z,88.59
2017-10-02T18:31:05.097Z,88.33
2017-10-02T18:33:33.238Z,88.50
2017-10-02T18:36:00.845Z,88.54
2017-10-02T18:38:28.888Z,88.64
2017-10-02T18:40:56.467Z,88.55
2017-10-02T18:43:24.065Z,88.89
2017-10-02T18:45:51.738Z,89.06
2017-10-02T18:48:19.906Z,89.74
2017-10-02T18:50:47.487Z,89.98
2017-10-02T18:53:15.484Z,90.31
2017-10-02T18:55:43.077Z,90.91
2017-10-02T18:58:10.707Z,91.15
2017-10-02T19:00:38.316Z,91.41
2017-10-02T19:03:05.965Z,91.94
2017-10-02T19:05:33.541Z,92.20
2017-10-02T19:08:01.164Z,92.78
2017-10-02T19:10:30.905Z,93.40
2017-10-02T19:12:58.501Z,93.74
2017-10-02T19:15:26.101Z,93.96
2017-10-02T19:17:53.716Z,94.14
2017-10-02T19:20:21.526Z,94.98
2017-10-02T19:22:49.141Z,94.97
2017-10-02T19:25:16.841Z,95.10
2017-10-02T19:27:45.771Z,95.17
2017-10-02T19:30:13.397Z,95.23
2017-10-02T19:32:41.393Z,95.21
2017-10-02T19:35:09.176Z,95.47
2017-10-02T19:37:37.599Z,95.42
2017-10-02T19:40:05.618Z,95.58
2017-10-02T19:42:33.187Z,95.60
2017-10-02T19:45:00.817Z,95.79
2017-10-02T19:47:28.510Z,95.87
2017-10-02T19:49:56.099Z,96.13
2017-10-02T19:52:24.127Z,96.16
2017-10-02T19:54:52.093Z,96.35
2017-10-02T19:57:21.007Z,96.38
2017-10-02T19:59:48.569Z,96.33
2017-10-02T20:02:16.498Z,96.41
2017-10-02T20:04:44.892Z,96.50
2017-10-02T20:07:12.486Z,96.55
2017-10-02T20:09:42.086Z,96.75
2017-10-02T20:12:09.712Z,96.81
2017-10-02T20:14:37.635Z,96.99
2017-10-02T20:17:05.257Z,97.06
2017-10-02T20:19:32.879Z,97.14
2017-10-02T20:22:00.476Z,97.17
2017-10-02T20:24:28.658Z,97.15
2017-10-02T20:26:56.683Z,97.37
2017-10-02T20:29:24.333Z,97.43
2017-10-02T20:31:51.948Z,97.59
2017-10-02T20:34:20.804Z,97.64
2017-10-02T20:36:48.392Z,97.82
2017-10-02T20:39:15.970Z,97.90
2017-10-02T20:41:43.547Z,97.94
2017-10-02T20:44:11.202Z,98.13
2017-10-02T20:46:38.794Z,98.31
2017-10-02T20:49:06.354Z,98.40
2017-10-02T20:51:33.974Z,98.50
2017-10-02T20:54:01.577Z,98.58
2017-10-02T20:56:29.156Z,98.63
2017-10-02T20:58:56.766Z,98.70
2017-10-02T21:01:24.347Z,98.75
2017-10-02T21:03:51.918Z,98.76
2017-10-02T21:06:19.510Z,98.70
2017-10-02T21:08:47.085Z,98.79
2017-10-02T21:11:15.563Z,98.81
2017-10-02T21:13:43.479Z,99.00
2017-10-02T21:16:11.257Z,99.11
2017-10-02T21:18:38.828Z,99.07
2017-10-02T21:21:06.429Z,99.17
2017-10-02T21:23:34.501Z,99.28
2017-10-02T21:26:02.440Z,99.34
2017-10-02T21:28:31.472Z,99.33
2017-10-02T21:30:59.378Z,99.31
2017-10-02T21:33:27.320Z,99.32
2017-10-02T21:35:54.893Z,99.33
2017-10-02T21:38:22.838Z,99.34
2017-10-02T21:40:51.445Z,99.30
2017-10-02T21:43:18.987Z,99.26
2017-10-02T21:45:46.626Z,99.29
2017-10-02T21:48:14.730Z,99.33
2017-10-02T21:50:42.329Z,99.38
2017-10-02T21:53:10.275Z,99.51
2017-10-02T21:55:37.846Z,99.51
2017-10-02T21:58:05.448Z,99.64
2017-10-02T22:00:34.120Z,99.61
2017-10-02T22:03:02.367Z,99.60
2017-10-02T22:05:29.962Z,99.66
2017-10-02T22:07:58.885Z,99.70
2017-10-02T22:10:27.855Z,99.75
2017-10-02T22:12:55.863Z,99.78
2017-10-02T22:15:23.604Z,99.79
2017-10-02T22:17:52.607Z,99.81
2017-10-02T22:20:20.186Z,99.80
2017-10-02T22:22:47.757Z,99.78
2017-10-02T22:25:15.632Z,99.78
2017-10-02T22:27:43.254Z,99.76
2017-10-02T22:30:10.824Z,99.69
2017-10-02T22:32:38.443Z,99.74
2017-10-02T22:35:10.221Z,99.72
2017-10-02T22:37:37.865Z,99.61
2017-10-02T22:40:06.508Z,99.56
2017-10-02T22:42:35.783Z,99.57
2017-10-02T22:45:03.356Z,99.52
2017-10-02T22:47:32.314Z,99.51
2017-10-02T22:50:00.322Z,99.55
2017-10-02T22:52:27.895Z,99.53
2017-10-02T22:54:56.214Z,99.54
2017-10-02T22:57:23.752Z,99.45
2017-10-02T22:59:52.578Z,99.37
2017-10-02T23:02:21.590Z,99.32
2017-10-02T23:04:49.520Z,99.34
2017-10-02T23:07:17.447Z,99.26
2017-10-02T23:09:45.014Z,99.27
2017-10-02T23:12:13.334Z,99.21
2017-10-02T23:14:40.898Z,99.18
2017-10-02T23:17:08.460Z,99.11
2017-10-02T23:19:38.797Z,99.01
2017-10-02T23:22:07.896Z,98.91
2017-10-02T23:24:35.504Z,98.84
2017-10-02T23:27:03.102Z,98.67
2017-10-02T23:29:31.043Z,98.61
2017-10-02T23:31:59.340Z,98.60
2017-10-02T23:34:29.001Z,98.52
2017-10-02T23:36:56.597Z,98.50
2017-10-02T23:39:24.228Z,98.55
2017-10-02T23:41:52.139Z,98.55
2017-10-02T23:44:19.708Z,98.64
2017-10-02T23:46:48.730Z,98.73
2017-10-02T23:49:17.139Z,98.85
2017-10-02T23:51:45.101Z,98.94
2017-10-02T23:54:12.668Z,98.89
2017-10-02T23:56:40.241Z,98.85
2017-10-02T23:59:07.854Z,98.85
